Time;durP1;ratioP1;P1;durP2;ratioP2;P2;SDS_P1;SDS_P2;PMS_P1;PMS_P2;Temp;Humidity;BMP_temperature;BMP_pressure;BME280_temperature;BME280_humidity;BME280_pressure;Samples;Min_cycle;Max_cycle;Signal;HPM_P1;HPM_P2
2021/12/08 00:02:09;;;;;;;;;;;;;;;21.42;38.11;98286.50;7282958;19;154017;-51
2021/12/08 00:04:36;;;;;;;;;;;;;;;21.43;38.27;98278.88;7284613;19;152382;-51
2021/12/08 00:07:03;;;;;;;;;;;;;;;21.42;37.97;98283.69;7279578;19;153775;-51
2021/12/08 00:14:43;;;;;;;;;;;;;;;21.41;37.87;98253.16;7281132;19;152357;-50
2021/12/08 00:17:10;;;;;;;;;;;;;;;21.40;37.83;98257.16;7284404;19;151826;-50
2021/12/08 00:19:37;;;;;;;;;;;;;;;21.38;38.33;98267.97;7281652;19;152929;-50
2021/12/08 00:22:03;;;;;;;;;;;;;;;21.35;38.06;98258.28;7283272;19;153330;-49
2021/12/08 00:24:30;;;;;;;;;;;;;;;21.34;38.20;98258.69;7284784;19;152092;-49
2021/12/08 00:26:57;;;;;;;;;;;;;;;21.32;38.36;98253.44;7283795;19;153313;-49
2021/12/08 00:29:25;;;;;;;;;;;;;;;21.32;38.10;98267.47;7282297;19;153996;-50
2021/12/08 00:31:52;;;;;;;;;;;;;;;21.30;38.44;98267.06;7284102;19;152035;-50
2021/12/08 00:34:19;;;;;;;;;;;;;;;21.28;38.39;98266.63;7290293;19;152727;-51
2021/12/08 00:36:49;;;;;;;;;;;;;;;21.23;38.62;98259.34;7281821;19;151954;-48
2021/12/08 00:39:16;;;;;;;;;;;;;;;21.21;38.53;98261.69;7282038;19;152015;-49
2021/12/08 00:41:43;;;;;;;;;;;;;;;21.21;38.41;98256.06;7281145;19;154189;-48
2021/12/08 00:44:10;;;;;;;;;;;;;;;21.19;38.44;98261.28;7280963;19;152554;-48
2021/12/08 00:46:37;;;;;;;;;;;;;;;21.17;38.97;98255.22;7282930;19;152223;-48
2021/12/08 00:49:04;;;;;;;;;;;;;;;21.13;38.55;98251.56;7282037;19;153218;-48
2021/12/08 00:51:31;;;;;;;;;;;;;;;21.10;38.77;98259.91;7280204;19;152170;-48
2021/12/08 00:53:58;;;;;;;;;;;;;;;21.09;38.95;98269.50;7280840;19;153139;-50
2021/12/08 00:56:25;;;;;;;;;;;;;;;21.07;38.89;98261.47;7286710;19;153282;-51
2021/12/08 00:58:53;;;;;;;;;;;;;;;21.04;39.13;98259.41;7279004;19;152645;-51
2021/12/08 01:01:27;;;;;;;;;;;;;;;21.04;38.99;98258.59;7276954;19;152960;-51
2021/12/08 01:03:54;;;;;;;;;;;;;;;21.04;38.94;98248.16;7283143;19;151769;-50
2021/12/08 01:06:21;;;;;;;;;;;;;;;21.00;39.30;98232.47;7281967;19;153789;-51
2021/12/08 01:08:47;;;;;;;;;;;;;;;20.94;39.15;98237.59;7283493;19;153542;-50
2021/12/08 01:11:15;;;;;;;;;;;;;;;20.91;39.21;98231.91;7289377;19;152041;-51
2021/12/08 01:13:42;;;;;;;;;;;;;;;20.91;39.66;98221.50;7288145;19;152726;-51
2021/12/08 01:16:09;;;;;;;;;;;;;;;20.85;40.00;98220.19;7286992;19;153537;-51
2021/12/08 01:18:36;;;;;;;;;;;;;;;20.85;40.25;98237.03;7295496;19;152232;-50
2021/12/08 01:21:04;;;;;;;;;;;;;;;20.79;40.32;98236.56;7284458;19;153148;-51
2021/12/08 01:23:32;;;;;;;;;;;;;;;20.79;40.33;98244.16;7288929;19;151883;-51
2021/12/08 01:25:59;;;;;;;;;;;;;;;20.79;40.52;98244.16;7289197;19;153373;-51
2021/12/08 01:28:27;;;;;;;;;;;;;;;20.77;40.31;98246.53;7287078;19;153806;-50
2021/12/08 01:30:55;;;;;;;;;;;;;;;20.72;40.39;98244.84;7288329;19;152952;-50
2021/12/08 01:33:27;;;;;;;;;;;;;;;20.71;40.29;98242.44;7285555;19;152870;-50
2021/12/08 01:35:54;;;;;;;;;;;;;;;20.66;40.33;98246.38;7284211;19;152686;-50
2021/12/08 01:38:21;;;;;;;;;;;;;;;20.64;40.25;98243.13;7295365;19;151515;-51
2021/12/08 01:40:49;;;;;;;;;;;;;;;20.58;40.55;98255.81;7284520;19;153353;-52
2021/12/08 01:45:59;;;;;;;;;;;;;;;20.51;40.26;98249.28;7288441;19;153948;-51
2021/12/08 01:48:31;;;;;;;;;;;;;;;20.50;40.44;98248.47;7285775;19;152863;-50
2021/12/08 01:51:00;;;;;;;;;;;;;;;20.48;40.44;98283.72;7285891;19;151633;-52
2021/12/08 01:53:27;;;;;;;;;;;;;;;20.39;40.16;98265.13;7286418;19;153308;-51
2021/12/08 01:55:54;;;;;;;;;;;;;;;20.39;40.45;98275.53;7285574;19;152516;-51
2021/12/08 01:58:21;;;;;;;;;;;;;;;20.34;40.54;98270.25;7287318;19;151753;-50
2021/12/08 02:00:48;;;;;;;;;;;;;;;20.31;40.16;98284.97;7294148;19;153466;-50
2021/12/08 02:03:16;;;;;;;;;;;;;;;20.25;40.33;98281.66;7287770;19;151839;-51
2021/12/08 02:05:43;;;;;;;;;;;;;;;20.15;40.52;98290.66;7286106;19;153320;-51
2021/12/08 02:08:10;;;;;;;;;;;;;;;20.13;40.51;98293.03;7285778;19;153750;-50
2021/12/08 02:10:38;;;;;;;;;;;;;;;20.09;40.79;98291.31;7287552;19;152083;-50
2021/12/08 02:13:05;;;;;;;;;;;;;;;20.04;40.74;98300.03;7285234;19;152769;-50
2021/12/08 02:15:34;;;;;;;;;;;;;;;19.97;40.58;98301.53;7286598;19;153827;-51
2021/12/08 02:18:01;;;;;;;;;;;;;;;19.92;40.80;98290.63;7282010;19;152536;-50
2021/12/08 02:20:28;;;;;;;;;;;;;;;19.91;40.73;98288.97;7287265;19;153296;-51
2021/12/08 02:22:55;;;;;;;;;;;;;;;19.85;40.47;98292.47;7288953;19;153637;-51
2021/12/08 02:25:24;;;;;;;;;;;;;;;19.81;40.83;98292.38;7286710;19;153211;-51
2021/12/08 02:27:51;;;;;;;;;;;;;;;19.78;40.80;98293.13;7283628;19;153518;-50
2021/12/08 02:30:28;;;;;;;;;;;;;;;19.72;40.90;98294.56;7286798;19;151974;-51
2021/12/08 02:48:29;;;;;;;;;;;;;;;19.52;41.23;98295.75;7280333;19;154178;-50
2021/12/08 02:50:57;;;;;;;;;;;;;;;19.49;40.87;98297.28;7283100;19;151944;-50
2021/12/08 02:53:24;;;;;;;;;;;;;;;19.43;40.90;98301.56;7284494;19;153017;-51
2021/12/08 02:55:50;;;;;;;;;;;;;;;19.40;40.80;98302.25;7283348;19;153696;-51
2021/12/08 02:58:17;;;;;;;;;;;;;;;19.37;41.05;98300.19;7281745;19;151992;-51
2021/12/08 03:00:51;;;;;;;;;;;;;;;19.36;40.86;98303.34;7285635;19;152673;-51
2021/12/08 03:03:18;;;;;;;;;;;;;;;19.33;40.99;98304.06;7281544;19;154897;-50
2021/12/08 03:05:45;;;;;;;;;;;;;;;19.31;41.02;98309.22;7283415;19;151971;-51
2021/12/08 03:08:13;;;;;;;;;;;;;;;19.27;41.14;98313.91;7285547;19;153568;-50
2021/12/08 03:10:46;;;;;;;;;;;;;;;19.25;41.35;98316.28;7282706;19;151914;-50
2021/12/08 03:13:13;;;;;;;;;;;;;;;19.25;41.10;98308.69;7282719;19;153801;-51
2021/12/08 03:15:40;;;;;;;;;;;;;;;19.19;41.80;98328.94;7279639;19;153624;-51
2021/12/08 03:18:07;;;;;;;;;;;;;;;19.16;41.18;98308.09;7282210;19;152004;-51
2021/12/08 03:23:14;;;;;;;;;;;;;;;19.10;41.62;98329.13;7282674;19;152837;-50
2021/12/08 03:25:44;;;;;;;;;;;;;;;19.09;41.70;98325.50;7282279;19;151996;-51
2021/12/08 03:33:20;;;;;;;;;;;;;;;18.99;41.70;98317.66;7280936;19;153451;-50
2021/12/08 03:35:48;;;;;;;;;;;;;;;18.96;41.64;98314.78;7278897;19;154218;-50
2021/12/08 03:38:17;;;;;;;;;;;;;;;18.91;41.98;98321.47;7281063;19;151828;-50
2021/12/08 03:40:44;;;;;;;;;;;;;;;18.91;41.68;98320.63;7281548;19;153496;-51
2021/12/08 03:43:12;;;;;;;;;;;;;;;18.92;41.83;98333.47;7279476;19;154258;-50
2021/12/08 03:45:44;;;;;;;;;;;;;;;18.86;42.31;98321.72;7282494;19;152113;-50
2021/12/08 03:48:13;;;;;;;;;;;;;;;18.87;42.18;98331.75;7282703;19;152937;-50
2021/12/08 03:50:42;;;;;;;;;;;;;;;18.86;42.10;98329.31;7290124;19;154134;-51
2021/12/08 03:53:12;;;;;;;;;;;;;;;18.83;42.15;98322.47;7282463;19;153582;-51
2021/12/08 03:55:39;;;;;;;;;;;;;;;18.81;42.38;98319.19;7280843;19;153572;-50
2021/12/08 03:58:06;;;;;;;;;;;;;;;18.79;42.33;98326.34;7282292;19;152027;-51
2021/12/08 04:00:33;;;;;;;;;;;;;;;18.78;42.56;98335.91;7279889;19;153696;-51
2021/12/08 04:03:03;;;;;;;;;;;;;;;18.74;42.28;98335.81;7278819;19;153690;-51
2021/12/08 04:05:40;;;;;;;;;;;;;;;18.71;42.41;98346.91;7281904;19;152071;-50
2021/12/08 04:08:15;;;;;;;;;;;;;;;18.69;42.43;98352.03;7277859;19;152460;-50
2021/12/08 04:10:43;;;;;;;;;;;;;;;18.66;42.18;98373.16;7281277;19;153591;-50
2021/12/08 04:13:10;;;;;;;;;;;;;;;18.62;42.93;98367.44;7288673;19;152566;-50
2021/12/08 04:15:37;;;;;;;;;;;;;;;18.60;42.60;98372.59;7279601;19;153368;-50
2021/12/08 04:18:03;;;;;;;;;;;;;;;18.59;42.33;98376.56;7281139;19;152156;-51
2021/12/08 04:20:34;;;;;;;;;;;;;;;18.58;42.73;98380.53;7280555;19;152467;-51
2021/12/08 04:23:02;;;;;;;;;;;;;;;18.55;42.81;98391.63;7276926;19;152342;-51
2021/12/08 04:25:33;;;;;;;;;;;;;;;18.53;42.63;98391.19;7280282;19;152022;-51
2021/12/08 04:28:03;;;;;;;;;;;;;;;18.51;43.02;98404.66;7278557;19;152189;-50
2021/12/08 04:30:34;;;;;;;;;;;;;;;18.47;43.15;98401.78;7281292;19;153739;-50
2021/12/08 04:33:05;;;;;;;;;;;;;;;18.45;43.03;98404.09;7280278;19;153045;-51
2021/12/08 04:35:31;;;;;;;;;;;;;;;18.44;42.98;98404.47;7288610;19;153710;-50
2021/12/08 04:38:03;;;;;;;;;;;;;;;18.42;43.29;98401.19;7279245;19;151892;-50
2021/12/08 04:45:38;;;;;;;;;;;;;;;18.51;43.30;98405.47;7280878;19;152169;-51
2021/12/08 04:51:00;;;;;;;;;;;;;;;18.62;43.22;98400.22;7279799;19;153469;-51
2021/12/08 05:09:20;;;;;;;;;;;;;;;19.02;44.02;98412.09;7278628;19;151834;-50
2021/12/08 05:11:52;;;;;;;;;;;;;;;19.10;43.88;98418.69;7276617;19;153778;-51
2021/12/08 05:14:22;;;;;;;;;;;;;;;19.17;43.41;98420.88;7279099;19;151716;-50
2021/12/08 05:16:52;;;;;;;;;;;;;;;19.23;43.83;98422.19;7280002;19;153590;-50
2021/12/08 05:19:20;;;;;;;;;;;;;;;19.30;43.41;98430.78;7279666;19;154492;-50
2021/12/08 05:21:50;;;;;;;;;;;;;;;19.35;43.17;98433.31;7286142;19;152200;-51
2021/12/08 05:24:20;;;;;;;;;;;;;;;19.41;43.51;98409.44;7280999;19;153350;-51
2021/12/08 05:26:56;;;;;;;;;;;;;;;19.46;43.13;98415.63;7281498;19;151929;-51
2021/12/08 05:29:30;;;;;;;;;;;;;;;19.52;43.08;98405.78;7279286;19;153095;-50
2021/12/08 05:31:58;;;;;;;;;;;;;;;19.57;43.00;98412.28;7281307;19;153589;-51
2021/12/08 05:34:25;;;;;;;;;;;;;;;19.62;42.74;98426.81;7282616;19;152151;-51
2021/12/08 05:36:57;;;;;;;;;;;;;;;19.68;42.58;98430.94;7281147;19;154054;-51
2021/12/08 05:39:25;;;;;;;;;;;;;;;19.73;42.67;98436.28;7280911;19;154156;-51
2021/12/08 05:41:53;;;;;;;;;;;;;;;19.77;42.32;98445.56;7287295;19;151974;-50
2021/12/08 05:44:21;;;;;;;;;;;;;;;19.83;42.70;98444.13;7278674;19;153399;-50
2021/12/08 05:46:49;;;;;;;;;;;;;;;19.87;42.65;98463.81;7280939;19;152978;-50
2021/12/08 05:49:17;;;;;;;;;;;;;;;19.92;42.04;98457.94;7279939;19;152708;-50
2021/12/08 05:51:45;;;;;;;;;;;;;;;19.96;42.15;98462.44;7278645;19;153156;-51
2021/12/08 05:54:14;;;;;;;;;;;;;;;20.02;41.86;98478.97;7282034;19;151817;-51
2021/12/08 05:56:42;;;;;;;;;;;;;;;20.06;41.95;98475.09;7285120;19;151942;-51
2021/12/08 05:59:10;;;;;;;;;;;;;;;20.10;41.61;98484.38;7282857;19;152294;-51
2021/12/08 06:01:45;;;;;;;;;;;;;;;20.15;41.46;98477.69;7287723;19;152192;-50
2021/12/08 06:04:12;;;;;;;;;;;;;;;20.19;40.98;98489.78;7292671;19;153908;-50
2021/12/08 06:06:41;;;;;;;;;;;;;;;20.22;40.35;98489.03;7288042;19;151722;-50
2021/12/08 06:09:09;;;;;;;;;;;;;;;20.21;39.53;98495.84;7283834;19;153178;-50
2021/12/08 06:11:37;;;;;;;;;;;;;;;20.27;40.07;98497.16;7286431;19;153684;-50
2021/12/08 06:14:06;;;;;;;;;;;;;;;18.76;34.27;98500.50;7286934;19;151818;-50
2021/12/08 06:16:35;;;;;;;;;;;;;;;19.01;35.27;98497.22;7286723;19;153591;-50
2021/12/08 06:19:04;;;;;;;;;;;;;;;19.38;35.49;98489.41;7285026;19;152227;-50
2021/12/08 06:21:30;;;;;;;;;;;;;;;19.58;36.17;98492.34;7286332;19;152779;-50
2021/12/08 06:23:59;;;;;;;;;;;;;;;19.70;36.71;98503.44;7285495;19;152173;-50
2021/12/08 06:26:27;;;;;;;;;;;;;;;19.79;37.27;98506.88;7290738;19;153997;-50
2021/12/08 06:28:54;;;;;;;;;;;;;;;19.86;37.62;98521.84;7285496;19;152701;-50
2021/12/08 06:31:22;;;;;;;;;;;;;;;19.92;37.59;98526.00;7287014;19;153587;-50
2021/12/08 06:33:50;;;;;;;;;;;;;;;19.99;38.04;98530.97;7285426;19;151827;-50
2021/12/08 06:36:19;;;;;;;;;;;;;;;20.04;38.10;98533.50;7282757;19;153342;-50
2021/12/08 06:38:46;;;;;;;;;;;;;;;20.11;38.07;98527.25;7283870;19;154164;-50
2021/12/08 06:41:16;;;;;;;;;;;;;;;20.17;38.37;98534.22;7283790;19;151783;-50
2021/12/08 06:43:46;;;;;;;;;;;;;;;20.22;38.79;98534.72;7281942;19;152715;-50
2021/12/08 06:46:13;;;;;;;;;;;;;;;20.27;39.08;98536.44;7282097;19;154063;-50
2021/12/08 06:48:44;;;;;;;;;;;;;;;20.32;39.26;98553.81;7292871;19;152091;-50
2021/12/08 06:51:14;;;;;;;;;;;;;;;20.38;39.43;98545.94;7284233;19;153495;-50
2021/12/08 06:53:42;;;;;;;;;;;;;;;20.42;39.77;98555.25;7284209;19;151844;-51
2021/12/08 06:56:14;;;;;;;;;;;;;;;20.47;39.82;98546.56;7285754;19;153650;-50
2021/12/08 06:58:43;;;;;;;;;;;;;;;20.52;39.61;98548.25;7282805;19;153881;-49
2021/12/08 07:01:35;;;;;;;;;;;;;;;20.56;39.92;98546.34;7286977;19;151940;-49
2021/12/08 07:09:15;;;;;;;;;;;;;;;20.70;39.76;98533.44;7285657;19;152568;-50
2021/12/08 07:11:43;;;;;;;;;;;;;;;20.75;40.21;98537.94;7290850;19;152791;-50
2021/12/08 07:14:13;;;;;;;;;;;;;;;20.78;39.92;98551.25;7285841;19;152752;-50
2021/12/08 07:16:42;;;;;;;;;;;;;;;20.82;40.09;98540.91;7283587;19;153644;-50
2021/12/08 07:19:23;;;;;;;;;;;;;;;20.86;40.46;98544.59;7283839;19;153583;-49
2021/12/08 07:21:51;;;;;;;;;;;;;;;20.89;39.80;98546.66;7284068;19;151742;-50
2021/12/08 07:24:20;;;;;;;;;;;;;;;20.94;39.71;98548.38;7286349;19;152716;-49
2021/12/08 07:26:49;;;;;;;;;;;;;;;20.97;39.83;98551.25;7283430;19;154096;-50
2021/12/08 07:29:17;;;;;;;;;;;;;;;21.00;39.93;98556.09;7284502;19;151883;-50
2021/12/08 07:31:47;;;;;;;;;;;;;;;21.04;39.86;98562.59;7285110;19;153175;-50
2021/12/08 07:34:19;;;;;;;;;;;;;;;21.06;39.80;98546.22;7289086;19;152941;-50
2021/12/08 07:36:48;;;;;;;;;;;;;;;21.10;39.68;98563.13;7285212;19;151979;-50
2021/12/08 07:39:19;;;;;;;;;;;;;;;21.13;39.42;98573.63;7282173;19;154141;-50
2021/12/08 07:41:49;;;;;;;;;;;;;;;21.15;39.78;98571.28;7285672;19;152101;-50
2021/12/08 07:44:16;;;;;;;;;;;;;;;21.18;39.87;98565.75;7282591;19;153738;-50
2021/12/08 07:46:46;;;;;;;;;;;;;;;21.21;40.18;98567.78;7281459;19;154142;-50
2021/12/08 07:49:16;;;;;;;;;;;;;;;21.23;39.52;98570.25;7283020;19;151832;-50
2021/12/08 07:51:53;;;;;;;;;;;;;;;21.27;39.53;98585.16;7283662;19;153470;-51
2021/12/08 07:54:21;;;;;;;;;;;;;;;21.30;39.81;98592.88;7290495;19;153323;-50
2021/12/08 07:56:51;;;;;;;;;;;;;;;21.32;39.89;98598.91;7284173;19;153423;-50
2021/12/08 07:59:18;;;;;;;;;;;;;;;21.35;39.40;98603.78;7280480;19;154082;-50
2021/12/08 08:01:50;;;;;;;;;;;;;;;21.38;39.35;98597.44;7285051;19;151731;-50
2021/12/08 08:04:19;;;;;;;;;;;;;;;21.41;39.15;98618.34;7279869;19;153490;-50
2021/12/08 08:06:48;;;;;;;;;;;;;;;21.43;39.11;98611.19;7278702;19;153912;-50
2021/12/08 08:09:18;;;;;;;;;;;;;;;21.45;39.13;98620.03;7283834;19;152605;-50
2021/12/08 08:11:54;;;;;;;;;;;;;;;21.48;39.34;98626.94;7283985;19;152745;-50
2021/12/08 08:14:21;;;;;;;;;;;;;;;21.50;38.95;98616.94;7283493;19;153841;-49
2021/12/08 08:16:55;;;;;;;;;;;;;;;21.53;38.74;98616.19;7285468;19;152225;-49
2021/12/08 08:19:27;;;;;;;;;;;;;;;21.54;38.89;98634.66;7283924;19;153526;-51
2021/12/08 08:21:55;;;;;;;;;;;;;;;21.56;38.97;98621.06;7285577;19;152158;-50
2021/12/08 08:24:22;;;;;;;;;;;;;;;21.58;37.92;98610.25;7280122;19;152841;-50
2021/12/08 08:26:50;;;;;;;;;;;;;;;21.60;38.58;98612.69;7282002;19;153833;-50
2021/12/08 08:29:16;;;;;;;;;;;;;;;21.63;38.09;98620.38;7284734;19;151573;-49
2021/12/08 08:31:48;;;;;;;;;;;;;;;21.66;38.83;98619.66;7283718;19;153470;-50
2021/12/08 08:34:15;;;;;;;;;;;;;;;21.67;39.30;98616.44;7282557;19;153260;-50
2021/12/08 08:36:45;;;;;;;;;;;;;;;21.69;38.27;98625.34;7283529;19;151538;-49
2021/12/08 08:39:15;;;;;;;;;;;;;;;21.71;38.99;98622.94;7289674;19;152074;-50
2021/12/08 08:41:49;;;;;;;;;;;;;;;21.73;38.53;98629.03;7284130;19;151993;-50
2021/12/08 08:44:29;;;;;;;;;;;;;;;21.75;38.14;98639.91;7281954;19;153586;-50
2021/12/08 08:46:57;;;;;;;;;;;;;;;21.78;38.05;98618.66;7281434;19;154711;-50
2021/12/08 08:49:25;;;;;;;;;;;;;;;21.79;38.03;98628.72;7284497;19;151832;-50
2021/12/08 08:52:00;;;;;;;;;;;;;;;21.81;38.43;98627.16;7283090;19;152915;-50
2021/12/08 08:54:32;;;;;;;;;;;;;;;21.83;37.94;98621.16;7282405;19;153228;-50
2021/12/08 08:57:09;;;;;;;;;;;;;;;21.85;37.84;98616.78;7282916;19;151706;-50
2021/12/08 08:59:42;;;;;;;;;;;;;;;21.85;38.02;98630.84;7282722;19;152517;-49
2021/12/08 09:02:10;;;;;;;;;;;;;;;21.88;38.44;98613.25;7287587;19;153192;-50
2021/12/08 09:04:42;;;;;;;;;;;;;;;21.92;38.11;98635.78;7280279;19;152824;-51
2021/12/08 09:07:15;;;;;;;;;;;;;;;21.92;38.24;98639.41;7278671;19;155659;-50
2021/12/08 09:09:44;;;;;;;;;;;;;;;21.96;38.95;98642.31;7283197;19;152318;-50
2021/12/08 09:12:21;;;;;;;;;;;;;;;21.95;37.97;98669.63;7283131;19;152405;-50
2021/12/08 09:14:58;;;;;;;;;;;;;;;21.96;37.85;98643.13;7282274;19;154034;-50
2021/12/08 09:17:31;;;;;;;;;;;;;;;21.97;37.58;98658.81;7279862;19;152164;-50
2021/12/08 09:20:09;;;;;;;;;;;;;;;22.01;37.83;98647.63;7283340;19;152728;-51
2021/12/08 09:22:40;;;;;;;;;;;;;;;22.03;38.13;98670.56;7280764;19;153135;-50
2021/12/08 09:25:16;;;;;;;;;;;;;;;22.05;37.89;98668.19;7288253;19;151866;-50
2021/12/08 09:27:49;;;;;;;;;;;;;;;22.09;38.26;98680.31;7281666;19;154341;-49
2021/12/08 09:30:18;;;;;;;;;;;;;;;22.09;37.76;98660.63;7288957;19;152342;-50
2021/12/08 09:32:47;;;;;;;;;;;;;;;22.10;37.85;98676.31;7286436;19;153837;-50
2021/12/08 09:35:21;;;;;;;;;;;;;;;22.10;37.44;98693.19;7286302;19;154101;-51
2021/12/08 09:37:56;;;;;;;;;;;;;;;22.11;37.52;98692.00;7289014;19;152159;-50
2021/12/08 09:40:32;;;;;;;;;;;;;;;22.10;37.29;98690.38;7288143;19;152605;-50
2021/12/08 09:43:05;;;;;;;;;;;;;;;22.15;37.33;98679.66;7285738;19;152155;-51
2021/12/08 09:45:37;;;;;;;;;;;;;;;21.60;32.20;98709.06;7288855;19;152102;-53
2021/12/08 09:48:06;;;;;;;;;;;;;;;21.47;33.16;98690.72;7294118;19;152441;-52
2021/12/08 09:50:33;;;;;;;;;;;;;;;21.64;33.42;98690.28;7290133;19;152625;-51
2021/12/08 09:53:00;;;;;;;;;;;;;;;21.65;34.67;98697.53;7288169;19;152321;-52
2021/12/08 09:55:27;;;;;;;;;;;;;;;21.69;34.04;98698.41;7288698;19;153162;-52
2021/12/08 09:57:55;;;;;;;;;;;;;;;21.66;34.27;98707.59;7287373;19;151916;-52
2021/12/08 10:00:24;;;;;;;;;;;;;;;21.65;34.21;98711.59;7288604;19;153643;-56
2021/12/08 10:02:57;;;;;;;;;;;;;;;21.64;33.85;98720.38;7286220;19;152621;-51
2021/12/08 10:05:25;;;;;;;;;;;;;;;21.57;34.46;98706.19;7287850;19;152501;-51
2021/12/08 10:07:52;;;;;;;;;;;;;;;21.60;34.06;98717.50;7291030;19;153983;-51
2021/12/08 10:10:19;;;;;;;;;;;;;;;21.63;34.19;98710.31;7287674;19;152253;-52
2021/12/08 10:12:46;;;;;;;;;;;;;;;20.64;32.12;98708.03;7287319;19;153214;-52
2021/12/08 10:15:15;;;;;;;;;;;;;;;21.01;32.71;98711.34;7286483;19;153284;-51
2021/12/08 10:17:46;;;;;;;;;;;;;;;21.08;33.22;98703.88;7285376;19;151834;-52
2021/12/08 10:20:12;;;;;;;;;;;;;;;21.08;33.37;98705.88;7283568;19;152656;-51
2021/12/08 10:22:40;;;;;;;;;;;;;;;21.07;33.68;98719.13;7284048;19;154765;-51
2021/12/08 10:25:11;;;;;;;;;;;;;;;21.06;33.33;98722.28;7285543;19;151705;-51
2021/12/08 10:27:57;;;;;;;;;;;;;;;21.04;33.69;98727.44;7284333;19;152806;-52
2021/12/08 10:30:23;;;;;;;;;;;;;;;21.04;33.68;98716.22;7295116;19;153480;-52
2021/12/08 10:32:53;;;;;;;;;;;;;;;21.04;34.26;98733.88;7287046;19;152620;-52
2021/12/08 10:35:39;;;;;;;;;;;;;;;21.05;34.24;98723.47;7284099;19;152522;-52
2021/12/08 10:38:06;;;;;;;;;;;;;;;21.05;33.91;98741.13;7286371;19;152235;-52
2021/12/08 10:40:33;;;;;;;;;;;;;;;21.04;33.82;98747.09;7283608;19;152727;-51
2021/12/08 10:43:11;;;;;;;;;;;;;;;21.05;34.09;98745.91;7284144;19;153502;-51
2021/12/08 10:45:38;;;;;;;;;;;;;;;21.04;33.95;98742.28;7284002;19;152944;-52
2021/12/08 10:48:07;;;;;;;;;;;;;;;21.07;34.11;98749.19;7283137;19;152241;-51
2021/12/08 10:55:50;;;;;;;;;;;;;;;21.05;33.51;98749.53;7260711;19;153830;-52
2021/12/08 10:58:27;;;;;;;;;;;;;;;21.08;34.12;98754.41;7279933;19;152169;-52
2021/12/08 11:00:55;;;;;;;;;;;;;;;21.10;34.40;98742.84;7285039;19;153033;-51
2021/12/08 11:03:22;;;;;;;;;;;;;;;21.10;33.86;98760.50;7282769;19;154777;-51
2021/12/08 11:05:51;;;;;;;;;;;;;;;21.11;34.23;98759.31;7287187;19;151941;-52
2021/12/08 11:08:20;;;;;;;;;;;;;;;21.11;34.24;98770.56;7281005;19;153752;-51
2021/12/08 11:10:52;;;;;;;;;;;;;;;21.13;34.32;98778.63;7280906;19;154152;-52
2021/12/08 11:13:21;;;;;;;;;;;;;;;21.12;34.45;98763.75;7283842;19;152322;-52
2021/12/08 11:15:56;;;;;;;;;;;;;;;21.12;34.16;98762.94;7291954;19;153357;-51
2021/12/08 11:18:24;;;;;;;;;;;;;;;21.11;34.57;98772.53;7283491;19;152054;-51
2021/12/08 11:20:54;;;;;;;;;;;;;;;21.11;34.08;98775.34;7283501;19;152167;-52
2021/12/08 11:26:04;;;;;;;;;;;;;;;21.03;33.97;98794.00;7281867;19;152298;-52
2021/12/08 11:28:33;;;;;;;;;;;;;;;21.00;33.77;98794.75;7284566;19;153836;-51
2021/12/08 11:31:09;;;;;;;;;;;;;;;20.97;34.21;98789.03;7283068;19;153267;-52
2021/12/08 11:33:41;;;;;;;;;;;;;;;20.94;34.31;98790.56;7281757;19;152353;-52
2021/12/08 11:36:10;;;;;;;;;;;;;;;20.90;34.16;98783.25;7283752;19;153434;-51
2021/12/08 11:38:38;;;;;;;;;;;;;;;20.88;34.24;98780.81;7287628;19;153382;-51
2021/12/08 11:41:35;;;;;;;;;;;;;;;20.85;34.12;98802.00;7284831;19;152717;-52
2021/12/08 11:44:15;;;;;;;;;;;;;;;20.82;33.95;98799.09;7279859;19;152639;-52
2021/12/08 11:46:59;;;;;;;;;;;;;;;20.81;34.40;98805.88;7283936;19;152205;-52
2021/12/08 11:49:26;;;;;;;;;;;;;;;20.76;34.22;98818.19;7282976;19;152715;-51
2021/12/08 11:51:55;;;;;;;;;;;;;;;20.73;33.99;98818.13;7278596;19;154010;-52
2021/12/08 11:54:35;;;;;;;;;;;;;;;20.69;34.27;98823.66;7284702;19;152176;-51
2021/12/08 11:57:01;;;;;;;;;;;;;;;20.64;33.95;98829.50;7278982;19;153431;-51
2021/12/08 11:59:28;;;;;;;;;;;;;;;20.63;33.99;98824.25;7280996;19;153794;-51
2021/12/08 12:01:56;;;;;;;;;;;;;;;20.58;34.02;98844.19;7292527;19;152099;-52
2021/12/08 12:04:22;;;;;;;;;;;;;;;20.54;34.04;98841.25;7279853;19;153207;-52
2021/12/08 12:06:49;;;;;;;;;;;;;;;20.50;34.20;98857.19;7280948;19;152259;-52
2021/12/08 12:09:16;;;;;;;;;;;;;;;20.45;34.00;98851.84;7280165;19;152593;-52
2021/12/08 12:11:53;;;;;;;;;;;;;;;20.42;34.32;98855.38;7282346;19;152750;-50
2021/12/08 12:14:20;;;;;;;;;;;;;;;20.40;34.20;98855.72;7283174;19;151966;-50
2021/12/08 12:16:47;;;;;;;;;;;;;;;20.37;34.52;98856.44;7280419;19;152484;-50
2021/12/08 12:19:17;;;;;;;;;;;;;;;20.34;34.31;98870.38;7281623;19;152348;-50
2021/12/08 12:22:00;;;;;;;;;;;;;;;20.30;34.42;98866.66;7289619;19;152277;-50
2021/12/08 12:24:33;;;;;;;;;;;;;;;20.25;34.68;98876.13;7279579;19;154532;-50
2021/12/08 12:27:06;;;;;;;;;;;;;;;20.25;34.72;98878.09;7281937;19;151737;-49
2021/12/08 12:29:52;;;;;;;;;;;;;;;20.31;34.57;98885.09;7283651;19;152720;-51
2021/12/08 12:32:23;;;;;;;;;;;;;;;20.31;35.51;98893.50;7281138;19;154200;-50
2021/12/08 12:34:53;;;;;;;;;;;;;;;20.30;35.44;98883.47;7278227;19;153476;-50
2021/12/08 12:37:34;;;;;;;;;;;;;;;20.50;39.72;98888.03;7282470;19;153300;-51
2021/12/08 12:40:02;;;;;;;;;;;;;;;20.39;35.31;98893.38;7281012;19;153481;-50
2021/12/08 12:42:42;;;;;;;;;;;;;;;20.35;35.41;98886.03;7282502;19;152171;-52
2021/12/08 12:45:12;;;;;;;;;;;;;;;20.21;35.16;98899.63;7286415;19;152019;-50
2021/12/08 12:47:39;;;;;;;;;;;;;;;20.15;34.91;98898.22;7281882;19;152024;-50
2021/12/08 12:50:10;;;;;;;;;;;;;;;20.12;35.22;98905.38;7283588;19;152671;-50
2021/12/08 12:52:38;;;;;;;;;;;;;;;20.12;34.96;98910.16;7276555;19;153170;-49
2021/12/08 12:55:06;;;;;;;;;;;;;;;20.13;35.28;98908.97;7282373;19;152081;-49
2021/12/08 12:57:32;;;;;;;;;;;;;;;20.16;35.35;98914.69;7276887;19;152207;-50
2021/12/08 12:59:59;;;;;;;;;;;;;;;20.20;34.95;98909.19;7278112;19;154124;-50
2021/12/08 13:02:31;;;;;;;;;;;;;;;20.25;34.89;98929.38;7281385;19;152497;-50
2021/12/08 13:05:08;;;;;;;;;;;;;;;20.31;35.27;98921.56;7279473;19;152053;-50
2021/12/08 13:07:39;;;;;;;;;;;;;;;20.36;35.18;98912.88;7285803;19;153927;-50
2021/12/08 13:10:07;;;;;;;;;;;;;;;20.40;34.87;98922.22;7280171;19;153417;-50
2021/12/08 13:12:34;;;;;;;;;;;;;;;20.45;35.36;98930.38;7279173;19;153944;-49
2021/12/08 13:15:05;;;;;;;;;;;;;;;20.50;35.65;98932.13;7278203;19;152166;-49
2021/12/08 13:17:35;;;;;;;;;;;;;;;20.54;35.74;98939.47;7277386;19;152474;-49
2021/12/08 13:20:09;;;;;;;;;;;;;;;20.60;35.63;98934.41;7275929;19;154344;-52
2021/12/08 13:22:47;;;;;;;;;;;;;;;20.70;34.79;98936.72;7278459;19;152086;-50
2021/12/08 13:25:23;;;;;;;;;;;;;;;20.69;34.93;98943.50;7274870;19;153262;-50
2021/12/08 13:28:06;;;;;;;;;;;;;;;20.66;34.86;98939.41;7273447;19;154157;-50
2021/12/08 13:30:34;;;;;;;;;;;;;;;20.68;34.66;98944.66;7285902;19;152292;-50
2021/12/08 13:33:08;;;;;;;;;;;;;;;20.65;34.36;98951.81;7277151;19;153937;-50
2021/12/08 13:35:36;;;;;;;;;;;;;;;20.67;34.68;98952.25;7279005;19;152031;-50
2021/12/08 13:38:04;;;;;;;;;;;;;;;20.67;34.52;98962.69;7277570;19;153471;-50
2021/12/08 13:40:48;;;;;;;;;;;;;;;20.66;34.33;98959.06;7275876;19;156046;-50
2021/12/08 13:43:34;;;;;;;;;;;;;;;20.65;34.38;98960.22;7278039;19;152338;-50
2021/12/08 13:46:02;;;;;;;;;;;;;;;20.64;34.58;98983.84;7273921;19;153644;-50
2021/12/08 13:48:29;;;;;;;;;;;;;;;20.63;34.69;98972.97;7272536;19;156769;-50
2021/12/08 13:51:01;;;;;;;;;;;;;;;20.63;34.67;98975.78;7275734;19;152145;-50
2021/12/08 13:53:28;;;;;;;;;;;;;;;20.59;34.32;98978.50;7281222;19;151963;-50
2021/12/08 13:55:59;;;;;;;;;;;;;;;20.58;34.33;98988.06;7278419;19;152640;-50
2021/12/08 13:58:33;;;;;;;;;;;;;;;20.57;34.77;98983.66;7276034;19;153889;-49